San Diego International Airport
KSAN : now visible

Airfield :











YOU CAN JOIN US ON...

 
LOGIN :

Register | Disclaimer

   EN    FR    IT 

 









Legend :    VFR   Marginal VFR   IFR   Intensive IFR   Very Intensive IFR
Visi :
Ceiling :
>= 8 km
>= 3000ft
5 to 8 km
1000 to 3000 ft
1500m to 5 km
500 to 1000 ft
800 to 1500m
200 to 500 ft
< 800m
< 200 ft
Symbols :   Thunderstorms  Fog  Heavy snow  Heavy precipitations  Wind > 20 kt






- Airport Elevation : 17 ft
- IATA code : SAN


KSAN - San Diego International

CURRENT METAR :
  • 121751Z 20004KT 10SM BKN250 17/11 A3026 RMK AO2 SLP246 T01720111 10172 20117 51008

EXPIRED METARs :
  • 121651Z 00000KT 7SM FEW008 BKN250 16/13 A3025 RMK AO2 SLP244 T01560128
  • 121551Z 00000KT 6SM BR FEW008 BKN250 14/13 A3024 RMK AO2 SLP240 T01390133

TAF KSAN
Valid from the 12 at 18:00 until the 14 at 00:00 UTC


121724Z 1218/1324 24005KT P6SM SCT250
FM130600 VRB02KT 5SM BR SCT250
FM130900 VRB02KT 2SM BR SCT250
FM131500 VRB02KT 5SM BR SCT250
FM131600 26005KT P6SM SCT250



MET'MAP, your aeronautical weather chart ! - Copyright ORBIFLY December 2007 - Disclaimer

ORBIFLY MET'MAP TEAM :

Programming & Development : Alexandra Zaïnal
Concept & original design : Baudouin d'Aumeries
Assistance for programming : Marc-Olivier Méhu
Technical & hardware support : Manuel Goepfert

Contact : metmap@orbifly.com




SOURCES & CREDITS :

   NOAA       Earth
Advisory